createdAt,value
2023-11-14T00:00:05.765Z,26.70
2023-11-14T00:02:34.374Z,26.70
2023-11-14T00:05:03.052Z,26.70
2023-11-14T00:07:31.443Z,26.70
2023-11-14T00:10:00.035Z,26.70
2023-11-14T00:12:28.715Z,26.70
2023-11-14T00:14:57.127Z,26.70
2023-11-14T00:17:26.578Z,26.70
2023-11-14T00:19:56.376Z,26.70
2023-11-14T00:22:24.911Z,26.70
2023-11-14T00:24:53.430Z,26.70
2023-11-14T00:27:22.017Z,26.70
2023-11-14T00:29:50.511Z,26.70
2023-11-14T00:32:19.213Z,26.70
2023-11-14T00:34:48.014Z,26.70
2023-11-14T00:37:16.630Z,26.70
2023-11-14T00:39:45.677Z,26.70
2023-11-14T00:42:14.483Z,26.70
2023-11-14T00:44:43.505Z,26.60
2023-11-14T00:47:12.067Z,26.60
2023-11-14T00:49:40.702Z,26.60
2023-11-14T00:52:09.061Z,26.60
2023-11-14T00:54:37.572Z,26.60
2023-11-14T00:57:06.261Z,26.60
2023-11-14T00:59:34.721Z,26.60
2023-11-14T01:02:03.230Z,26.50
2023-11-14T01:04:31.673Z,26.50
2023-11-14T01:07:00.029Z,26.50
2023-11-14T01:09:29.465Z,26.50
2023-11-14T01:11:58.581Z,26.50
2023-11-14T01:14:27.116Z,26.50
2023-11-14T01:16:55.446Z,26.50
2023-11-14T01:19:24.060Z,26.50
2023-11-14T01:21:52.384Z,26.50
2023-11-14T01:24:21.248Z,26.50
2023-11-14T01:26:49.647Z,26.50
2023-11-14T01:29:17.961Z,26.50
2023-11-14T01:31:46.558Z,26.50
2023-11-14T01:34:15.780Z,26.50
2023-11-14T01:36:44.186Z,26.50
2023-11-14T01:39:12.679Z,26.40
2023-11-14T01:41:41.226Z,26.40
2023-11-14T01:44:10.074Z,26.40
2023-11-14T01:46:38.414Z,26.40
2023-11-14T01:49:07.388Z,26.40
2023-11-14T01:51:36.228Z,26.40
2023-11-14T01:54:06.144Z,26.50
2023-11-14T01:56:34.798Z,26.50
2023-11-14T01:59:03.628Z,26.50
2023-11-14T02:01:32.481Z,26.50
2023-11-14T02:04:01.092Z,26.50
2023-11-14T02:06:30.670Z,26.50
2023-11-14T02:09:00.426Z,26.50
2023-11-14T02:11:28.768Z,26.50
2023-11-14T02:13:57.326Z,26.50
2023-11-14T02:16:26.223Z,26.50
2023-11-14T02:18:55.491Z,26.50
2023-11-14T02:21:26.563Z,26.50
2023-11-14T02:23:55.464Z,26.50
2023-11-14T02:26:24.210Z,26.40
2023-11-14T02:28:58.033Z,26.40
2023-11-14T02:31:27.222Z,26.40
2023-11-14T02:33:55.773Z,26.40
2023-11-14T02:36:24.114Z,26.40
2023-11-14T02:38:53.640Z,26.40
2023-11-14T02:41:21.989Z,26.40
2023-11-14T02:43:50.430Z,26.40
2023-11-14T02:46:18.915Z,26.40
2023-11-14T02:48:47.409Z,26.40
2023-11-14T02:51:15.820Z,26.40
2023-11-14T02:53:44.449Z,26.50
2023-11-14T02:56:12.831Z,26.40
2023-11-14T02:58:42.031Z,26.50
2023-11-14T03:01:10.722Z,26.50
2023-11-14T03:03:39.005Z,26.40
2023-11-14T03:06:07.797Z,26.50
2023-11-14T03:08:36.390Z,26.40
2023-11-14T03:11:11.678Z,26.40
2023-11-14T03:13:42.214Z,26.50
2023-11-14T03:16:16.673Z,26.40
2023-11-14T03:18:45.369Z,26.40
2023-11-14T03:21:13.575Z,26.40
2023-11-14T03:23:42.010Z,26.40
2023-11-14T03:26:10.797Z,26.40
2023-11-14T03:28:39.448Z,26.40
2023-11-14T03:31:07.667Z,26.40
2023-11-14T03:33:36.017Z,26.40
2023-11-14T03:36:04.711Z,26.40
2023-11-14T03:38:34.364Z,26.40
2023-11-14T03:41:02.753Z,26.40
2023-11-14T03:43:31.282Z,26.40
2023-11-14T03:45:59.886Z,26.40
2023-11-14T03:48:28.065Z,26.40
2023-11-14T03:50:56.445Z,26.40
2023-11-14T03:53:24.875Z,26.40
2023-11-14T03:55:53.245Z,26.40
2023-11-14T03:58:22.909Z,26.40
2023-11-14T04:00:51.216Z,26.40
2023-11-14T04:03:19.655Z,26.40
2023-11-14T04:05:47.961Z,26.40
2023-11-14T04:08:16.322Z,26.40
2023-11-14T04:10:45.174Z,26.40
2023-11-14T04:13:13.436Z,26.40
2023-11-14T04:15:41.975Z,26.40
2023-11-14T04:18:10.350Z,26.40
2023-11-14T04:20:38.827Z,26.30
2023-11-14T04:23:07.190Z,26.30
2023-11-14T04:25:35.626Z,26.30
2023-11-14T04:28:04.100Z,26.30
2023-11-14T04:30:32.513Z,26.30
2023-11-14T04:33:01.121Z,26.20
2023-11-14T04:35:29.440Z,26.20
2023-11-14T04:37:58.042Z,26.10
2023-11-14T04:40:26.652Z,26.20
2023-11-14T04:42:55.160Z,26.20
2023-11-14T04:45:23.522Z,26.20
2023-11-14T04:47:51.988Z,26.20
2023-11-14T04:50:23.678Z,26.20
2023-11-14T04:52:52.089Z,26.20
2023-11-14T04:55:20.616Z,26.20
2023-11-14T04:57:49.000Z,26.20
2023-11-14T05:00:17.700Z,26.10
2023-11-14T05:02:46.163Z,26.10
2023-11-14T05:05:14.829Z,26.10
2023-11-14T05:07:43.155Z,26.10
2023-11-14T05:10:11.960Z,26.20
2023-11-14T05:12:40.564Z,26.10
2023-11-14T05:15:09.449Z,26.10
2023-11-14T05:17:37.913Z,26.10
2023-11-14T05:20:07.183Z,26.10
2023-11-14T05:22:35.789Z,26.00
2023-11-14T05:25:04.098Z,26.00
2023-11-14T05:27:32.611Z,25.90
2023-11-14T05:30:00.812Z,25.90
2023-11-14T05:32:29.211Z,25.90
2023-11-14T05:34:57.622Z,25.90
2023-11-14T05:37:25.982Z,25.90
2023-11-14T05:39:54.298Z,25.90
2023-11-14T05:42:22.930Z,25.90
2023-11-14T05:44:51.691Z,25.90
2023-11-14T05:47:19.980Z,25.90
2023-11-14T05:49:48.357Z,25.90
2023-11-14T05:52:16.873Z,25.90
2023-11-14T05:54:45.284Z,25.90
2023-11-14T05:57:13.841Z,25.90
2023-11-14T05:59:43.754Z,26.00
2023-11-14T06:02:14.039Z,26.00
2023-11-14T06:04:42.790Z,26.00
2023-11-14T06:07:11.270Z,26.00
2023-11-14T06:09:39.838Z,26.00
2023-11-14T06:12:08.714Z,26.00
2023-11-14T06:14:37.186Z,26.00
2023-11-14T06:17:05.697Z,25.90
2023-11-14T06:19:34.289Z,25.90
2023-11-14T06:22:03.192Z,25.90
2023-11-14T06:24:31.500Z,25.90
2023-11-14T06:26:59.895Z,25.90
2023-11-14T06:29:28.292Z,25.90
2023-11-14T06:31:56.655Z,25.90
2023-11-14T06:34:25.109Z,25.90
2023-11-14T06:36:53.423Z,25.90
2023-11-14T06:39:22.085Z,25.90
2023-11-14T06:41:52.266Z,25.90
2023-11-14T06:44:20.848Z,25.90
2023-11-14T06:46:49.423Z,25.80
2023-11-14T06:49:17.946Z,25.80
2023-11-14T06:51:46.501Z,25.90
2023-11-14T06:54:14.906Z,25.90
2023-11-14T06:56:43.395Z,25.90
2023-11-14T06:59:12.065Z,25.90
2023-11-14T07:01:40.615Z,25.90
2023-11-14T07:04:10.151Z,25.90
2023-11-14T07:06:38.505Z,25.90
2023-11-14T07:09:06.813Z,25.90
2023-11-14T07:11:35.316Z,25.90
2023-11-14T07:14:04.009Z,26.00
2023-11-14T07:16:32.558Z,26.00
2023-11-14T07:19:01.029Z,26.00
2023-11-14T07:21:29.729Z,26.00
2023-11-14T07:23:58.127Z,26.10
2023-11-14T07:26:26.742Z,26.10
2023-11-14T07:28:55.158Z,26.10
2023-11-14T07:31:23.680Z,26.20
2023-11-14T07:33:52.036Z,26.20
2023-11-14T07:36:20.420Z,26.20
2023-11-14T07:38:48.882Z,26.30
2023-11-14T07:41:17.477Z,26.30
2023-11-14T07:43:46.786Z,26.30
2023-11-14T07:46:15.133Z,26.40
2023-11-14T07:48:43.767Z,26.40
2023-11-14T07:51:12.385Z,26.40
2023-11-14T07:53:41.066Z,26.50
2023-11-14T07:56:09.585Z,26.50
2023-11-14T07:58:38.141Z,26.60
2023-11-14T08:01:06.976Z,26.60
2023-11-14T08:03:35.862Z,26.60
2023-11-14T08:06:04.905Z,26.70
2023-11-14T08:08:33.213Z,26.70
2023-11-14T08:11:02.940Z,26.70
2023-11-14T08:13:31.787Z,26.80
2023-11-14T08:16:00.318Z,26.80
2023-11-14T08:18:28.652Z,26.90
2023-11-14T08:20:57.079Z,26.80
2023-11-14T08:23:25.595Z,26.90
2023-11-14T08:25:54.216Z,26.90
2023-11-14T08:28:22.683Z,26.90
2023-11-14T08:30:51.154Z,26.90
2023-11-14T08:33:19.617Z,27.00
2023-11-14T08:35:47.928Z,27.00
2023-11-14T08:38:19.950Z,27.10
2023-11-14T08:40:50.488Z,27.10
2023-11-14T08:43:19.356Z,27.10
2023-11-14T08:45:47.946Z,27.20
2023-11-14T08:48:16.694Z,27.20
2023-11-14T08:50:45.505Z,27.20
2023-11-14T08:53:13.962Z,27.20
2023-11-14T08:55:42.519Z,27.30
2023-11-14T08:58:11.068Z,27.30
2023-11-14T09:00:39.560Z,27.40
2023-11-14T09:03:07.998Z,27.50
2023-11-14T09:05:36.869Z,27.50
2023-11-14T09:08:06.196Z,27.50
2023-11-14T09:10:35.668Z,27.50
2023-11-14T09:13:04.023Z,27.50
2023-11-14T09:15:32.700Z,27.50
2023-11-14T09:18:01.574Z,27.50
2023-11-14T09:20:30.498Z,27.50
2023-11-14T09:23:01.116Z,27.50
2023-11-14T09:25:30.805Z,27.50
2023-11-14T09:27:59.715Z,27.60
2023-11-14T09:30:28.275Z,27.70
2023-11-14T09:32:56.893Z,27.70
2023-11-14T09:35:25.459Z,27.70
2023-11-14T09:37:54.044Z,27.80
2023-11-14T09:40:23.306Z,27.80
2023-11-14T09:42:52.049Z,27.80
2023-11-14T09:45:20.806Z,27.90
2023-11-14T09:47:49.542Z,28.00
2023-11-14T09:50:18.977Z,28.00
2023-11-14T09:52:47.849Z,28.10
2023-11-14T09:55:16.517Z,28.20
2023-11-14T09:57:47.831Z,28.30
2023-11-14T10:00:18.234Z,28.30
2023-11-14T10:02:46.787Z,28.30
2023-11-14T10:05:16.954Z,28.30
2023-11-14T10:07:46.471Z,28.30
2023-11-14T10:10:15.584Z,28.20
2023-11-14T10:12:45.104Z,28.20
2023-11-14T10:15:13.536Z,28.20
2023-11-14T10:17:46.874Z,28.30
2023-11-14T10:20:16.488Z,28.30
2023-11-14T10:23:03.772Z,28.30
2023-11-14T10:25:35.253Z,28.30
2023-11-14T10:28:06.251Z,28.30
2023-11-14T10:30:53.930Z,28.30
2023-11-14T10:33:44.779Z,28.30
2023-11-14T10:36:13.506Z,28.20
2023-11-14T10:38:41.883Z,28.20
2023-11-14T10:41:11.874Z,28.20
2023-11-14T10:43:40.839Z,28.30
2023-11-14T10:46:16.414Z,28.40
2023-11-14T10:48:44.942Z,28.40
2023-11-14T10:51:14.622Z,28.40
2023-11-14T10:53:45.311Z,28.40
2023-11-14T10:56:14.740Z,28.40
2023-11-14T10:58:43.241Z,28.50
2023-11-14T11:01:11.678Z,28.60
2023-11-14T11:03:41.352Z,28.60
2023-11-14T11:06:10.496Z,28.60
2023-11-14T11:08:38.920Z,28.60
2023-11-14T11:11:10.328Z,28.60
2023-11-14T11:13:41.049Z,28.70
2023-11-14T11:19:25.726Z,28.80
2023-11-14T11:22:14.035Z,29.00
2023-11-14T11:25:21.990Z,29.10
2023-11-14T11:27:50.525Z,29.10
2023-11-14T11:30:18.935Z,29.20
2023-11-14T11:32:48.234Z,29.30
2023-11-14T11:35:20.475Z,29.20
2023-11-14T11:38:12.147Z,29.30
2023-11-14T11:41:11.438Z,29.30
2023-11-14T11:43:44.355Z,29.30
2023-11-14T11:46:34.433Z,29.30
2023-11-14T11:49:11.853Z,29.30
2023-11-14T11:51:41.413Z,29.30
2023-11-14T11:54:31.019Z,29.40
2023-11-14T11:57:10.199Z,29.30
2023-11-14T11:59:44.529Z,29.30
2023-11-14T12:02:17.844Z,29.40
2023-11-14T12:04:47.362Z,29.30
2023-11-14T12:07:15.919Z,29.30
2023-11-14T12:09:44.375Z,29.30
2023-11-14T12:12:12.788Z,29.20
2023-11-14T12:14:41.867Z,29.20
2023-11-14T12:17:11.151Z,29.20
2023-11-14T12:19:39.786Z,29.20
2023-11-14T12:22:08.653Z,29.30
2023-11-14T12:24:37.259Z,29.40
2023-11-14T12:27:06.169Z,29.40
2023-11-14T12:29:34.485Z,29.50
2023-11-14T12:32:03.139Z,29.60
2023-11-14T12:34:32.727Z,29.50
2023-11-14T12:37:14.124Z,29.60
2023-11-14T12:39:43.179Z,29.60
2023-11-14T12:42:11.528Z,29.50
2023-11-14T12:44:40.121Z,29.60
2023-11-14T12:47:12.950Z,29.60
2023-11-14T12:49:51.163Z,29.70
2023-11-14T12:52:19.726Z,29.70
2023-11-14T12:54:48.098Z,29.60
2023-11-14T12:57:16.489Z,29.70
2023-11-14T12:59:45.126Z,29.70
2023-11-14T13:02:13.657Z,29.70
2023-11-14T13:04:42.153Z,29.80
2023-11-14T13:07:10.595Z,29.70
2023-11-14T13:09:38.870Z,29.80
2023-11-14T13:12:08.164Z,29.90
2023-11-14T13:14:38.949Z,29.90
2023-11-14T13:17:08.929Z,29.90
2023-11-14T13:19:38.450Z,29.90
2023-11-14T13:22:07.405Z,29.90
2023-11-14T13:24:36.624Z,29.90
2023-11-14T13:27:05.135Z,30.00
2023-11-14T13:29:33.751Z,30.10
2023-11-14T13:32:02.140Z,30.00
2023-11-14T13:34:36.209Z,30.00
2023-11-14T13:37:05.585Z,30.10
2023-11-14T13:39:33.930Z,30.10
2023-11-14T13:42:02.481Z,30.10
2023-11-14T13:44:31.211Z,30.00
2023-11-14T13:46:59.890Z,30.00
2023-11-14T13:49:28.340Z,30.00
2023-11-14T13:51:56.874Z,29.90
2023-11-14T13:54:25.660Z,29.90
2023-11-14T13:56:54.736Z,29.70
2023-11-14T13:59:23.246Z,29.60
2023-11-14T14:01:51.875Z,29.60
2023-11-14T14:04:20.383Z,29.70
2023-11-14T14:06:48.993Z,29.60
2023-11-14T14:09:17.563Z,29.80
2023-11-14T14:11:46.010Z,29.80
2023-11-14T14:14:14.698Z,30.00
2023-11-14T14:16:43.355Z,30.00
2023-11-14T14:19:12.484Z,30.10
2023-11-14T14:21:40.844Z,30.20
2023-11-14T14:24:09.870Z,30.30
2023-11-14T14:26:38.590Z,30.40
2023-11-14T14:29:07.347Z,30.50
2023-11-14T14:31:35.936Z,30.50
2023-11-14T14:34:07.612Z,30.50
2023-11-14T14:36:37.675Z,30.60
2023-11-14T14:39:06.438Z,30.70
2023-11-14T14:41:36.533Z,30.80
2023-11-14T14:44:05.312Z,30.80
2023-11-14T14:46:34.100Z,30.70
2023-11-14T14:49:02.498Z,30.80
2023-11-14T14:51:30.935Z,31.00
2023-11-14T14:53:59.377Z,31.10
2023-11-14T14:56:27.902Z,31.20
2023-11-14T14:58:56.321Z,31.30
2023-11-14T15:01:24.815Z,31.40
2023-11-14T15:03:53.431Z,31.50
2023-11-14T15:06:21.892Z,31.60
2023-11-14T15:08:50.342Z,31.60
2023-11-14T15:11:18.827Z,31.70
2023-11-14T15:13:47.537Z,31.50
2023-11-14T15:16:17.203Z,31.70
2023-11-14T15:18:45.876Z,31.70
2023-11-14T15:21:14.307Z,31.60
2023-11-14T15:23:42.805Z,31.70
2023-11-14T15:26:11.254Z,31.80
2023-11-14T15:28:39.831Z,31.90
2023-11-14T15:31:08.587Z,32.00
2023-11-14T15:33:37.193Z,32.10
2023-11-14T15:36:06.333Z,32.20
2023-11-14T15:38:35.091Z,32.20
2023-11-14T15:41:03.529Z,32.10
2023-11-14T15:43:31.827Z,32.10
2023-11-14T15:46:00.349Z,32.20
2023-11-14T15:48:28.820Z,32.30
2023-11-14T15:50:57.393Z,32.40
2023-11-14T15:53:25.711Z,32.50
2023-11-14T15:55:54.241Z,32.60
2023-11-14T15:58:22.873Z,32.50
2023-11-14T16:00:51.237Z,32.50
2023-11-14T16:03:19.764Z,32.50
2023-11-14T16:05:48.279Z,32.60
2023-11-14T16:08:16.843Z,32.60
2023-11-14T16:10:45.277Z,32.50
2023-11-14T16:13:13.733Z,32.40
2023-11-14T16:15:42.136Z,32.30
2023-11-14T16:18:10.730Z,32.20
2023-11-14T16:20:39.441Z,32.30
2023-11-14T16:23:07.887Z,32.20
2023-11-14T16:25:36.568Z,32.30
2023-11-14T16:28:05.410Z,32.60
2023-11-14T16:30:33.944Z,32.60
2023-11-14T16:33:02.289Z,32.60
2023-11-14T16:35:31.107Z,32.60
2023-11-14T16:37:59.761Z,32.60
2023-11-14T16:40:28.284Z,32.60
2023-11-14T16:42:56.707Z,32.60
2023-11-14T16:45:25.069Z,32.30
2023-11-14T16:47:53.814Z,32.20
2023-11-14T16:50:22.202Z,32.20
2023-11-14T16:52:50.795Z,32.10
2023-11-14T16:55:19.313Z,31.90
2023-11-14T16:57:47.753Z,31.80
2023-11-14T17:00:17.407Z,31.60
2023-11-14T17:02:47.006Z,31.50
2023-11-14T17:05:18.845Z,31.50
2023-11-14T17:07:47.719Z,31.30
2023-11-14T17:10:16.730Z,31.20
2023-11-14T17:12:45.421Z,31.10
2023-11-14T17:15:13.950Z,31.00
2023-11-14T17:17:42.183Z,30.80
2023-11-14T17:20:10.814Z,30.70
2023-11-14T17:22:39.448Z,30.60
2023-11-14T17:25:08.240Z,30.60
2023-11-14T17:27:36.833Z,30.40
2023-11-14T17:30:05.982Z,30.40
2023-11-14T17:32:34.459Z,30.40
2023-11-14T17:35:03.173Z,30.30
2023-11-14T17:37:31.558Z,30.20
2023-11-14T17:40:00.009Z,30.20
2023-11-14T17:42:28.375Z,30.10
2023-11-14T17:44:56.784Z,30.00
2023-11-14T17:47:25.324Z,30.00
2023-11-14T17:49:53.883Z,29.90
2023-11-14T17:52:22.510Z,29.80
2023-11-14T17:54:50.885Z,29.70
2023-11-14T17:57:19.457Z,29.60
2023-11-14T17:59:47.873Z,29.60
2023-11-14T18:02:16.504Z,29.40
2023-11-14T18:04:45.162Z,29.40
2023-11-14T18:07:13.847Z,29.30
2023-11-14T18:09:42.276Z,29.30
2023-11-14T18:12:10.902Z,29.30
2023-11-14T18:14:39.288Z,29.20
2023-11-14T18:17:08.056Z,29.10
2023-11-14T18:19:38.827Z,29.10
2023-11-14T18:22:08.276Z,29.10
2023-11-14T18:24:36.514Z,29.00
2023-11-14T18:27:05.373Z,29.00
2023-11-14T18:29:33.903Z,29.00
2023-11-14T18:32:02.479Z,28.90
2023-11-14T18:34:30.856Z,28.80
2023-11-14T18:36:59.394Z,28.90
2023-11-14T18:39:27.911Z,28.80
2023-11-14T18:41:59.539Z,28.80
2023-11-14T18:44:31.274Z,28.80
2023-11-14T18:47:00.054Z,28.70
2023-11-14T18:49:28.458Z,28.70
2023-11-14T18:51:57.088Z,28.70
2023-11-14T18:54:28.331Z,28.70
2023-11-14T18:56:57.164Z,28.60
2023-11-14T18:59:25.711Z,28.60
2023-11-14T19:03:47.112Z,28.50
2023-11-14T19:06:15.686Z,28.50
2023-11-14T19:08:44.888Z,28.50
2023-11-14T19:11:15.625Z,28.50
2023-11-14T19:13:52.909Z,28.50
2023-11-14T19:16:29.083Z,28.50
2023-11-14T19:18:57.550Z,28.50
2023-11-14T19:21:44.108Z,28.50
2023-11-14T19:24:15.223Z,28.40
2023-11-14T19:26:43.733Z,28.40
2023-11-14T19:29:12.447Z,28.40
2023-11-14T19:31:41.165Z,28.40
2023-11-14T19:34:13.741Z,28.40
2023-11-14T19:36:42.595Z,28.40
2023-11-14T19:39:10.898Z,28.40
2023-11-14T19:41:39.562Z,28.30
2023-11-14T19:44:08.407Z,28.30
2023-11-14T19:46:37.124Z,28.30
2023-11-14T19:49:06.261Z,28.30
2023-11-14T19:51:34.909Z,28.30
2023-11-14T19:54:03.427Z,28.20
2023-11-14T19:56:32.065Z,28.20
2023-11-14T19:59:00.578Z,28.20
2023-11-14T20:01:29.437Z,28.20
2023-11-14T20:03:57.957Z,28.20
2023-11-14T20:06:27.329Z,28.20
2023-11-14T20:08:55.893Z,28.20
2023-11-14T20:11:24.201Z,28.20
2023-11-14T20:13:52.689Z,28.20
2023-11-14T20:16:21.263Z,28.20
2023-11-14T20:18:49.622Z,28.20
2023-11-14T20:21:25.029Z,28.10
2023-11-14T20:23:58.418Z,28.10
2023-11-14T20:26:27.050Z,28.10
2023-11-14T20:28:55.746Z,28.10
2023-11-14T20:31:24.303Z,28.10
2023-11-14T20:33:52.817Z,28.10
2023-11-14T20:36:21.271Z,28.10
2023-11-14T20:38:49.868Z,28.10
2023-11-14T20:41:19.070Z,28.10
2023-11-14T20:43:47.479Z,28.00
2023-11-14T20:46:16.733Z,28.00
2023-11-14T20:48:45.219Z,28.00
2023-11-14T20:51:21.972Z,28.00
2023-11-14T20:53:58.900Z,28.00
2023-11-14T20:56:27.819Z,28.00
2023-11-14T20:58:56.562Z,28.00
2023-11-14T21:01:26.611Z,28.00
2023-11-14T21:03:55.737Z,28.00
2023-11-14T21:06:24.116Z,28.00
2023-11-14T21:08:52.795Z,28.00
2023-11-14T21:11:21.183Z,28.00
2023-11-14T21:13:49.834Z,27.90
2023-11-14T21:16:18.703Z,27.90
2023-11-14T21:18:47.237Z,27.90
2023-11-14T21:21:15.768Z,27.90
2023-11-14T21:23:45.185Z,27.90
2023-11-14T21:26:19.021Z,27.90
2023-11-14T21:28:48.418Z,27.80
2023-11-14T21:31:16.985Z,27.80
2023-11-14T21:33:45.569Z,27.80
2023-11-14T21:36:14.160Z,27.80
2023-11-14T21:38:42.840Z,27.80
2023-11-14T21:41:12.356Z,27.80
2023-11-14T21:43:41.478Z,27.80
2023-11-14T21:46:10.301Z,27.80
2023-11-14T21:48:39.271Z,27.80
2023-11-14T21:51:07.727Z,27.80
2023-11-14T21:53:36.293Z,27.80
2023-11-14T21:56:05.322Z,27.80
2023-11-14T21:58:33.907Z,27.80
2023-11-14T22:01:02.425Z,27.80
2023-11-14T22:03:31.307Z,27.80
2023-11-14T22:05:59.798Z,27.80
2023-11-14T22:08:28.352Z,27.80
2023-11-14T22:10:57.100Z,27.80
2023-11-14T22:13:25.665Z,27.80
2023-11-14T22:15:54.429Z,27.80
2023-11-14T22:18:23.127Z,27.70
2023-11-14T22:20:51.800Z,27.70
2023-11-14T22:23:20.419Z,27.70
2023-11-14T22:25:48.917Z,27.70
2023-11-14T22:28:17.497Z,27.70
2023-11-14T22:30:45.871Z,27.70
2023-11-14T22:33:14.534Z,27.70
2023-11-14T22:35:43.356Z,27.70
2023-11-14T22:38:11.898Z,27.70
2023-11-14T22:40:40.366Z,27.60
2023-11-14T22:43:08.781Z,27.60
2023-11-14T22:45:37.292Z,27.60
2023-11-14T22:48:06.317Z,27.60
2023-11-14T22:50:34.835Z,27.50
2023-11-14T22:53:03.994Z,27.50
2023-11-14T22:55:32.300Z,27.50
2023-11-14T22:58:00.700Z,27.50
2023-11-14T23:00:29.496Z,27.40
2023-11-14T23:02:57.939Z,27.40
2023-11-14T23:05:26.494Z,27.30
2023-11-14T23:07:55.273Z,27.30
2023-11-14T23:10:23.914Z,27.20
2023-11-14T23:12:52.413Z,27.20
2023-11-14T23:15:20.899Z,27.20
2023-11-14T23:17:49.544Z,27.10
2023-11-14T23:20:18.059Z,27.10
2023-11-14T23:22:46.776Z,27.10
2023-11-14T23:25:15.085Z,27.10
2023-11-14T23:27:43.485Z,27.00
2023-11-14T23:30:12.604Z,27.00
2023-11-14T23:32:41.396Z,27.00
2023-11-14T23:35:10.238Z,27.00
2023-11-14T23:37:39.931Z,27.00
2023-11-14T23:40:09.217Z,26.90
2023-11-14T23:42:38.482Z,27.00
2023-11-14T23:45:07.339Z,26.90
2023-11-14T23:47:36.034Z,26.90
2023-11-14T23:50:04.598Z,27.00
2023-11-14T23:52:33.449Z,26.90
2023-11-14T23:55:02.101Z,26.90
2023-11-14T23:57:30.532Z,26.90
2023-11-14T23:59:59.038Z,26.90
